createdAt,value
2022-12-05T00:00:41.397Z,23.30
2022-12-05T00:05:43.486Z,22.92
2022-12-05T00:10:45.643Z,24.15
2022-12-05T00:15:47.718Z,22.05
2022-12-05T00:20:49.796Z,23.48
2022-12-05T00:25:51.769Z,22.63
2022-12-05T00:30:53.926Z,22.63
2022-12-05T00:35:56.007Z,24.90
2022-12-05T00:41:04.229Z,23.75
2022-12-05T00:46:12.485Z,24.63
2022-12-05T00:51:17.668Z,23.67
2022-12-05T00:56:22.402Z,21.80
2022-12-05T01:01:27.630Z,23.00
2022-12-05T01:06:29.863Z,24.00
2022-12-05T01:11:35.037Z,24.45
2022-12-05T01:16:41.902Z,24.98
2022-12-05T01:21:44.423Z,23.38
2022-12-05T01:26:48.183Z,25.02
2022-12-05T01:31:50.963Z,23.67
2022-12-05T01:36:53.170Z,24.20
2022-12-05T01:41:55.273Z,25.55
2022-12-05T01:46:57.638Z,25.08
2022-12-05T01:52:07.644Z,24.55
2022-12-05T01:57:11.866Z,25.00
2022-12-05T02:02:14.216Z,23.77
2022-12-05T02:07:16.414Z,23.83
2022-12-05T02:12:20.285Z,24.92
2022-12-05T02:17:49.753Z,25.42
2022-12-05T02:23:11.108Z,24.58
2022-12-05T02:28:37.856Z,26.20
2022-12-05T02:33:47.335Z,26.15
2022-12-05T02:39:10.518Z,27.77
2022-12-05T02:44:15.583Z,26.00
2022-12-05T02:49:22.173Z,27.70
2022-12-05T02:54:31.184Z,25.30
2022-12-05T02:59:33.356Z,27.20
2022-12-05T03:04:35.574Z,26.30
2022-12-05T03:09:43.781Z,27.50
2022-12-05T03:15:02.798Z,26.52
2022-12-05T03:20:08.107Z,28.35
2022-12-05T03:25:11.154Z,26.23
2022-12-05T03:30:19.656Z,27.45
2022-12-05T03:36:09.363Z,26.27
2022-12-05T03:42:00.640Z,27.13
2022-12-05T03:47:12.439Z,26.98
2022-12-05T03:52:20.431Z,27.13
2022-12-05T03:57:28.383Z,26.67
2022-12-05T04:02:45.277Z,25.10
2022-12-05T04:07:54.164Z,25.75
2022-12-05T04:13:17.611Z,25.95
2022-12-05T04:18:23.981Z,25.73
2022-12-05T04:23:27.186Z,26.00
2022-12-05T04:28:42.923Z,24.83
2022-12-05T04:33:50.583Z,26.48
2022-12-05T04:38:57.806Z,25.48
2022-12-05T04:44:03.882Z,25.90
2022-12-05T04:49:09.302Z,23.48
2022-12-05T04:54:18.068Z,25.25
2022-12-05T04:59:20.179Z,26.00
2022-12-05T05:04:28.325Z,25.25
2022-12-05T05:09:30.514Z,24.30
2022-12-05T05:14:32.683Z,25.63
2022-12-05T05:19:34.717Z,24.27
2022-12-05T05:24:36.883Z,24.38
2022-12-05T05:29:38.908Z,22.63
2022-12-05T05:34:41.254Z,22.77
2022-12-05T05:39:43.300Z,24.05
2022-12-05T05:44:45.333Z,24.88
2022-12-05T05:49:47.430Z,23.83
2022-12-05T05:54:49.612Z,22.98
2022-12-05T05:59:52.117Z,22.50
2022-12-05T06:04:54.157Z,23.85
2022-12-05T06:09:56.601Z,24.17
2022-12-05T06:14:59.028Z,24.40
2022-12-05T06:20:01.294Z,23.17
2022-12-05T06:25:03.791Z,23.02
2022-12-05T06:30:06.547Z,23.33
2022-12-05T06:35:15.425Z,23.45
2022-12-05T06:40:17.610Z,22.90
2022-12-05T06:45:20.478Z,22.75
2022-12-05T06:50:22.475Z,21.88
2022-12-05T06:55:24.565Z,22.52
2022-12-05T07:00:45.292Z,22.58
2022-12-05T07:05:47.359Z,21.33
2022-12-05T07:10:53.146Z,20.70
2022-12-05T07:15:55.233Z,21.75
2022-12-05T07:21:11.709Z,21.98
2022-12-05T07:26:17.573Z,21.63
2022-12-05T07:31:22.779Z,22.60
2022-12-05T07:36:25.027Z,22.08
2022-12-05T07:41:29.610Z,22.15
2022-12-05T07:46:31.739Z,20.90
2022-12-05T07:51:34.078Z,20.42
2022-12-05T07:56:36.034Z,20.30
2022-12-05T08:01:38.310Z,20.02
2022-12-05T08:06:40.341Z,20.33
2022-12-05T08:11:42.338Z,20.33
2022-12-05T08:16:44.521Z,19.73
2022-12-05T08:21:46.742Z,20.25
2022-12-05T08:26:48.713Z,19.95
2022-12-05T08:31:51.771Z,19.42
2022-12-05T08:36:53.898Z,20.38
2022-12-05T08:41:56.045Z,20.65
2022-12-05T08:46:58.047Z,20.20
2022-12-05T08:52:00.131Z,19.50
2022-12-05T08:57:02.179Z,19.73
2022-12-05T09:02:04.354Z,20.02
2022-12-05T09:07:08.243Z,20.35
2022-12-05T09:12:10.288Z,20.63
2022-12-05T09:17:12.365Z,19.67
2022-12-05T09:22:14.491Z,20.83
2022-12-05T09:27:16.581Z,20.70
2022-12-05T09:32:19.695Z,20.05
2022-12-05T09:37:38.664Z,20.73
2022-12-05T09:42:54.048Z,21.10
2022-12-05T09:48:00.610Z,21.17
2022-12-05T09:53:09.273Z,20.70
2022-12-05T09:58:19.062Z,20.60
2022-12-05T10:03:41.653Z,22.63
2022-12-05T10:09:01.345Z,20.35
2022-12-05T10:14:35.245Z,20.45
2022-12-05T10:19:46.898Z,20.33
2022-12-05T10:24:54.230Z,19.88
2022-12-05T10:30:02.903Z,20.60
2022-12-05T10:35:34.826Z,20.33
2022-12-05T10:40:51.435Z,18.27
2022-12-05T10:45:53.812Z,17.80
2022-12-05T10:50:57.786Z,16.35
2022-12-05T10:56:29.176Z,16.17
2022-12-05T11:01:22.854Z,16.75
2022-12-05T11:06:31.030Z,15.75
2022-12-05T11:11:34.340Z,17.30
2022-12-05T11:16:38.734Z,15.63
2022-12-05T11:21:44.053Z,14.32
2022-12-05T11:26:46.103Z,14.82
2022-12-05T11:31:52.149Z,15.68
2022-12-05T11:36:58.251Z,15.15
2022-12-05T11:42:12.392Z,15.60
2022-12-05T11:47:38.257Z,14.15
2022-12-05T11:53:12.689Z,14.27
2022-12-05T11:58:45.402Z,14.70
2022-12-05T12:03:59.635Z,13.52
2022-12-05T12:09:33.915Z,13.02
2022-12-05T12:15:01.217Z,13.25
2022-12-05T12:20:18.499Z,11.93
2022-12-05T12:25:25.758Z,11.82
2022-12-05T12:30:44.798Z,11.23
2022-12-05T12:36:02.499Z,11.30
2022-12-05T12:41:42.004Z,11.63
2022-12-05T12:46:54.198Z,11.43
2022-12-05T12:52:02.253Z,11.40
2022-12-05T12:57:20.640Z,12.73
2022-12-05T13:02:51.192Z,12.80
2022-12-05T13:08:11.581Z,12.05
2022-12-05T13:13:18.092Z,11.43
2022-12-05T13:18:22.508Z,11.48
2022-12-05T13:23:28.607Z,12.20
2022-12-05T13:28:42.237Z,12.35
2022-12-05T13:33:50.214Z,12.27
2022-12-05T13:39:20.684Z,12.02
2022-12-05T13:44:33.223Z,12.48
2022-12-05T13:49:51.229Z,12.57
2022-12-05T13:55:24.148Z,12.15
2022-12-05T14:00:39.268Z,13.57
2022-12-05T14:05:42.470Z,14.80
2022-12-05T14:10:44.451Z,15.57
2022-12-05T14:15:48.793Z,12.07
2022-12-05T14:21:41.571Z,12.75
2022-12-05T14:27:00.280Z,11.80
2022-12-05T14:32:23.797Z,12.82
2022-12-05T14:37:31.121Z,14.20
2022-12-05T14:42:40.743Z,12.35
2022-12-05T14:47:51.538Z,11.18
2022-12-05T14:58:36.110Z,11.02
2022-12-05T15:03:42.052Z,11.80
2022-12-05T15:08:50.348Z,11.60
2022-12-05T15:13:53.068Z,10.85
2022-12-05T15:19:00.013Z,11.93
2022-12-05T15:24:05.619Z,10.68
2022-12-05T15:29:15.016Z,9.05
2022-12-05T15:34:29.230Z,7.10
2022-12-05T15:39:53.543Z,7.82
2022-12-05T15:45:14.081Z,7.43
2022-12-05T15:50:22.218Z,6.20
2022-12-05T15:55:33.543Z,6.22
2022-12-05T16:00:40.198Z,5.82
2022-12-05T16:05:50.864Z,5.70
2022-12-05T16:10:53.094Z,5.07
2022-12-05T16:15:55.314Z,5.32
2022-12-05T16:20:57.738Z,5.30
2022-12-05T16:26:20.555Z,6.85
2022-12-05T16:31:22.969Z,5.80
2022-12-05T16:36:25.045Z,6.05
2022-12-05T16:41:38.608Z,4.53
2022-12-05T16:46:42.194Z,4.90
2022-12-05T16:51:52.746Z,4.80
2022-12-05T16:56:55.034Z,5.13
2022-12-05T17:01:57.229Z,4.90
2022-12-05T17:06:59.330Z,4.57
2022-12-05T17:12:05.116Z,4.70
2022-12-05T17:17:14.214Z,4.82
2022-12-05T17:22:16.846Z,5.28
2022-12-05T17:27:20.547Z,5.22
2022-12-05T17:32:22.547Z,5.13
2022-12-05T17:37:24.612Z,6.32
2022-12-05T17:42:27.597Z,5.93
2022-12-05T17:47:29.837Z,5.82
2022-12-05T17:52:33.626Z,5.57
2022-12-05T17:57:35.676Z,5.47
2022-12-05T18:02:38.302Z,6.28
2022-12-05T18:07:41.940Z,5.57
2022-12-05T18:12:44.042Z,5.93
2022-12-05T18:17:46.090Z,5.40
2022-12-05T18:22:48.712Z,5.88
2022-12-05T18:27:50.874Z,6.10
2022-12-05T18:32:52.835Z,6.53
2022-12-05T18:37:55.790Z,6.30
2022-12-05T18:42:57.787Z,5.50
2022-12-05T18:48:16.375Z,5.82
2022-12-05T18:53:22.339Z,5.70
2022-12-05T18:58:24.430Z,6.22
2022-12-05T19:03:26.733Z,6.38
2022-12-05T19:08:28.771Z,5.88
2022-12-05T19:13:30.858Z,7.88
2022-12-05T19:18:32.822Z,7.90
2022-12-05T19:23:35.267Z,7.40
2022-12-05T19:28:37.792Z,7.70
2022-12-05T19:33:43.218Z,7.68
2022-12-05T19:38:47.683Z,8.98
2022-12-05T19:43:50.349Z,8.48
2022-12-05T19:48:56.143Z,8.82
2022-12-05T19:54:00.123Z,7.88
2022-12-05T19:59:03.265Z,8.10
2022-12-05T20:04:08.078Z,8.25
2022-12-05T20:09:12.287Z,8.55
2022-12-05T20:14:14.718Z,8.48
2022-12-05T20:19:16.851Z,8.38
2022-12-05T20:24:19.266Z,7.95
2022-12-05T20:29:21.430Z,8.13
2022-12-05T20:34:23.434Z,8.55
2022-12-05T20:39:27.316Z,7.78
2022-12-05T20:44:29.369Z,7.43
2022-12-05T20:49:31.510Z,7.05
2022-12-05T20:54:33.575Z,6.28
2022-12-05T20:59:35.693Z,6.20
2022-12-05T21:04:40.770Z,6.80
2022-12-05T21:09:42.780Z,6.75
2022-12-05T21:14:44.980Z,6.97
2022-12-05T21:19:47.122Z,6.13
2022-12-05T21:24:49.104Z,6.30
2022-12-05T21:29:51.066Z,6.40
2022-12-05T21:34:53.921Z,6.18
2022-12-05T21:39:56.072Z,5.97
2022-12-05T21:44:58.319Z,6.45
2022-12-05T21:50:00.908Z,5.88
2022-12-05T21:55:10.122Z,6.36
2022-12-05T22:00:12.751Z,7.20
2022-12-05T22:05:14.890Z,6.47
2022-12-05T22:10:17.342Z,6.57
2022-12-05T22:15:19.770Z,6.15
2022-12-05T22:20:21.733Z,5.60
2022-12-05T22:25:23.710Z,5.82
2022-12-05T22:30:25.727Z,5.65
2022-12-05T22:35:27.746Z,5.97
2022-12-05T22:40:29.735Z,6.20
2022-12-05T22:45:31.736Z,5.32
2022-12-05T22:50:33.815Z,5.72
2022-12-05T22:55:35.859Z,5.55
2022-12-05T23:00:38.253Z,5.72
2022-12-05T23:05:42.283Z,5.75
2022-12-05T23:10:44.334Z,5.72
2022-12-05T23:15:46.482Z,5.70
2022-12-05T23:20:48.710Z,5.22
2022-12-05T23:25:51.050Z,4.68
2022-12-05T23:30:53.083Z,5.18
2022-12-05T23:35:55.177Z,4.72
2022-12-05T23:41:02.701Z,4.85
2022-12-05T23:46:06.249Z,4.78
2022-12-05T23:51:13.917Z,4.22
2022-12-05T23:56:19.224Z,5.20
